FDB437 OMDB-VAAH
Flight info
| Callsign | FDB437 |
|---|---|
| Flight time | N/A |
| Altitude | 35000 |
| Route | IVURO M677 LALDO B505 NADSO B524 ALPOR M504 TELEM N893 VASLA VASLA1A |
| Aircraft | B738/M-SABDFGRVYL/LB2 |
Departure
| Time | 2026-04-26 09:18 |
|---|---|
| Airport | Dubai International Airport (OMDB) |
Arrival
| Time | N/A |
|---|---|
| Airport | Sardar Vallabh Patel International Airport (VAAH) |
| Time | Latitude | Longitude | Altitude | Speed | Heading |
|---|---|---|---|---|---|
| 2026-04-26 08:19 | 25.26387 | 55.35895 | 34 ft | 0 kts | 31° |
| 2026-04-26 08:59 | 25.26384 | 55.35894 | 34 ft | 2 kts | 31° |
| 2026-04-26 08:59 | 25.26372 | 55.35885 | 34 ft | 2 kts | 31° |
| 2026-04-26 09:00 | 25.26359 | 55.35876 | 34 ft | 2 kts | 31° |
| 2026-04-26 09:00 | 25.26346 | 55.35868 | 33 ft | 2 kts | 31° |
| 2026-04-26 09:00 | 25.26333 | 55.35859 | 33 ft | 2 kts | 37° |
| 2026-04-26 09:00 | 25.26325 | 55.35846 | 33 ft | 2 kts | 79° |
| 2026-04-26 09:01 | 25.26326 | 55.35829 | 33 ft | 2 kts | 114° |
| 2026-04-26 09:01 | 25.26334 | 55.35816 | 33 ft | 2 kts | 124° |
| 2026-04-26 09:01 | 25.26341 | 55.35804 | 33 ft | 0 kts | 119° |
| 2026-04-26 09:01 | 25.26341 | 55.35803 | 33 ft | 0 kts | 119° |
| 2026-04-26 09:06 | 25.26341 | 55.35804 | 33 ft | 0 kts | 119° |
| 2026-04-26 09:06 | 25.26323 | 55.35838 | 33 ft | 9 kts | 121° |
| 2026-04-26 09:07 | 25.26297 | 55.35885 | 34 ft | 5 kts | 124° |
| 2026-04-26 09:07 | 25.26271 | 55.35907 | 34 ft | 4 kts | 159° |
| 2026-04-26 09:07 | 25.26241 | 55.35907 | 34 ft | 5 kts | 193° |
| 2026-04-26 09:07 | 25.26194 | 55.35908 | 34 ft | 8 kts | 147° |
| 2026-04-26 09:08 | 25.26153 | 55.35966 | 35 ft | 10 kts | 121° |
| 2026-04-26 09:08 | 25.26109 | 55.36046 | 36 ft | 13 kts | 121° |
| 2026-04-26 09:08 | 25.26052 | 55.36150 | 36 ft | 18 kts | 121° |
| 2026-04-26 09:08 | 25.25978 | 55.36283 | 38 ft | 19 kts | 121° |
| 2026-04-26 09:09 | 25.25910 | 55.36408 | 39 ft | 18 kts | 121° |
| 2026-04-26 09:09 | 25.25846 | 55.36522 | 39 ft | 17 kts | 121° |
| 2026-04-26 09:09 | 25.25785 | 55.36629 | 40 ft | 16 kts | 121° |
| 2026-04-26 09:09 | 25.25724 | 55.36742 | 41 ft | 18 kts | 120° |
| 2026-04-26 09:10 | 25.25656 | 55.36866 | 42 ft | 19 kts | 122° |
| 2026-04-26 09:10 | 25.25589 | 55.36984 | 44 ft | 17 kts | 121° |
| 2026-04-26 09:10 | 25.25526 | 55.37098 | 45 ft | 17 kts | 121° |
| 2026-04-26 09:10 | 25.25461 | 55.37215 | 45 ft | 18 kts | 121° |
| 2026-04-26 09:11 | 25.25394 | 55.37337 | 45 ft | 19 kts | 121° |
| 2026-04-26 09:11 | 25.25322 | 55.37466 | 45 ft | 20 kts | 121° |
| 2026-04-26 09:11 | 25.25249 | 55.37598 | 47 ft | 20 kts | 121° |
| 2026-04-26 09:11 | 25.25177 | 55.37728 | 49 ft | 20 kts | 121° |
| 2026-04-26 09:12 | 25.25105 | 55.37859 | 49 ft | 17 kts | 122° |
| 2026-04-26 09:12 | 25.25052 | 55.37953 | 49 ft | 13 kts | 122° |
| 2026-04-26 09:12 | 25.25005 | 55.38037 | 49 ft | 8 kts | 121° |
| 2026-04-26 09:12 | 25.24980 | 55.38082 | 50 ft | 5 kts | 121° |
| 2026-04-26 09:13 | 25.24953 | 55.38118 | 51 ft | 6 kts | 145° |
| 2026-04-26 09:13 | 25.24918 | 55.38118 | 51 ft | 5 kts | 205° |
| 2026-04-26 09:13 | 25.24904 | 55.38110 | 51 ft | 0 kts | 210° |
| 2026-04-26 09:14 | 25.24889 | 55.38100 | 51 ft | 5 kts | 210° |
| 2026-04-26 09:15 | 25.24843 | 55.38070 | 52 ft | 7 kts | 211° |
| 2026-04-26 09:15 | 25.24810 | 55.38037 | 52 ft | 5 kts | 265° |
| 2026-04-26 09:15 | 25.24821 | 55.38003 | 52 ft | 0 kts | 301° |
| 2026-04-26 09:17 | 25.24864 | 55.37925 | 50 ft | 38 kts | 301° |
| 2026-04-26 09:17 | 25.25013 | 55.37656 | 48 ft | 81 kts | 301° |
| 2026-04-26 09:17 | 25.25586 | 55.36626 | 42 ft | 151 kts | 301° |
| 2026-04-26 09:17 | 25.26183 | 55.35548 | 315 ft | 169 kts | 301° |
| 2026-04-26 09:18 | 25.26759 | 55.34492 | 994 ft | 162 kts | 302° |
| 2026-04-26 09:18 | 25.27352 | 55.33445 | 1514 ft | 166 kts | 303° |
| 2026-04-26 09:18 | 25.27973 | 55.32344 | 1879 ft | 174 kts | 302° |
| 2026-04-26 09:18 | 25.28619 | 55.31171 | 2174 ft | 184 kts | 302° |
| 2026-04-26 09:19 | 25.29399 | 55.30014 | 2519 ft | 190 kts | 318° |
| 2026-04-26 09:19 | 25.30590 | 55.29404 | 2828 ft | 199 kts | 351° |
| 2026-04-26 09:19 | 25.32034 | 55.29431 | 3029 ft | 217 kts | 2° |
| 2026-04-26 09:19 | 25.33599 | 55.29542 | 3356 ft | 228 kts | 360° |
| 2026-04-26 09:20 | 25.35211 | 55.29601 | 3771 ft | 235 kts | 359° |
| 2026-04-26 09:20 | 25.36835 | 55.29636 | 4354 ft | 234 kts | 358° |
| 2026-04-26 09:20 | 25.38471 | 55.29703 | 4867 ft | 238 kts | 3° |
| 2026-04-26 09:20 | 25.40072 | 55.30210 | 5321 ft | 248 kts | 28° |
| 2026-04-26 09:21 | 25.41413 | 55.31537 | 5636 ft | 266 kts | 48° |
| 2026-04-26 09:21 | 25.42545 | 55.33187 | 5920 ft | 280 kts | 51° |
| 2026-04-26 09:21 | 25.43738 | 55.34953 | 6264 ft | 290 kts | 50° |
| 2026-04-26 09:21 | 25.44988 | 55.36721 | 6779 ft | 294 kts | 49° |
| 2026-04-26 09:22 | 25.46271 | 55.38486 | 7325 ft | 296 kts | 49° |
| 2026-04-26 09:22 | 25.47576 | 55.40268 | 7881 ft | 299 kts | 49° |
| 2026-04-26 09:22 | 25.48875 | 55.42051 | 8436 ft | 302 kts | 49° |
| 2026-04-26 09:22 | 25.50174 | 55.43893 | 9003 ft | 305 kts | 51° |
| 2026-04-26 09:23 | 25.51339 | 55.45832 | 9528 ft | 311 kts | 62° |
| 2026-04-26 09:23 | 25.52056 | 55.48087 | 10139 ft | 317 kts | 79° |
| 2026-04-26 09:23 | 25.52172 | 55.50567 | 10522 ft | 328 kts | 95° |
| 2026-04-26 09:23 | 25.51739 | 55.53056 | 10778 ft | 340 kts | 109° |
| 2026-04-26 09:24 | 25.50736 | 55.55468 | 10935 ft | 356 kts | 121° |
| 2026-04-26 09:24 | 25.49416 | 55.57853 | 10956 ft | 374 kts | 124° |
| 2026-04-26 09:24 | 25.47976 | 55.60269 | 10960 ft | 378 kts | 125° |
| 2026-04-26 09:24 | 25.46507 | 55.62710 | 10968 ft | 378 kts | 124° |
| 2026-04-26 09:25 | 25.45089 | 55.65096 | 10962 ft | 378 kts | 125° |
| 2026-04-26 09:25 | 25.43667 | 55.67534 | 10963 ft | 377 kts | 123° |
| 2026-04-26 09:25 | 25.42439 | 55.70103 | 10992 ft | 385 kts | 113° |
| 2026-04-26 09:25 | 25.41622 | 55.72917 | 11639 ft | 385 kts | 106° |
| 2026-04-26 09:26 | 25.41013 | 55.75778 | 12235 ft | 387 kts | 103° |
| 2026-04-26 09:26 | 25.40469 | 55.78695 | 12850 ft | 389 kts | 102° |
| 2026-04-26 09:26 | 25.39931 | 55.81608 | 13474 ft | 392 kts | 103° |
| 2026-04-26 09:26 | 25.39356 | 55.84589 | 14010 ft | 396 kts | 103° |
| 2026-04-26 09:27 | 25.38752 | 55.87576 | 14577 ft | 400 kts | 104° |
| 2026-04-26 09:27 | 25.38132 | 55.90544 | 15149 ft | 404 kts | 104° |
| 2026-04-26 09:27 | 25.37488 | 55.93576 | 15704 ft | 408 kts | 104° |